sensor_id;sensor_type;location;lat;lon;timestamp;temperature;humidity
20795;DHT22;28087;-33.874;151.240;2022-09-13T00:01:20;18.00;99.90
20795;DHT22;28087;-33.874;151.240;2022-09-13T00:16:53;18.60;99.90
20795;DHT22;28087;-33.874;151.240;2022-09-13T00:19:29;18.70;99.90
20795;DHT22;28087;-33.874;151.240;2022-09-13T00:22:04;18.60;99.90
20795;DHT22;28087;-33.874;151.240;2022-09-13T00:24:40;18.90;99.90
20795;DHT22;28087;-33.874;151.240;2022-09-13T00:29:53;19.00;99.90
20795;DHT22;28087;-33.874;151.240;2022-09-13T00:32:29;19.10;99.90
20795;DHT22;28087;-33.874;151.240;2022-09-13T00:37:41;19.30;99.90
20795;DHT22;28087;-33.874;151.240;2022-09-13T00:40:18;19.20;99.90
20795;DHT22;28087;-33.874;151.240;2022-09-13T00:42:54;19.20;99.90
20795;DHT22;28087;-33.874;151.240;2022-09-13T00:45:32;19.20;99.90
20795;DHT22;28087;-33.874;151.240;2022-09-13T00:48:10;18.90;99.90
20795;DHT22;28087;-33.874;151.240;2022-09-13T00:50:52;18.70;99.90
20795;DHT22;28087;-33.874;151.240;2022-09-13T00:53:31;18.70;99.90
20795;DHT22;28087;-33.874;151.240;2022-09-13T00:56:10;18.90;99.90
20795;DHT22;28087;-33.874;151.240;2022-09-13T00:58:51;19.10;99.90
20795;DHT22;28087;-33.874;151.240;2022-09-13T01:01:34;19.00;99.90
20795;DHT22;28087;-33.874;151.240;2022-09-13T01:04:10;18.80;99.90
20795;DHT22;28087;-33.874;151.240;2022-09-13T01:06:45;18.90;99.90
20795;DHT22;28087;-33.874;151.240;2022-09-13T01:09:22;19.00;99.90
20795;DHT22;28087;-33.874;151.240;2022-09-13T01:14:54;19.10;99.90
20795;DHT22;28087;-33.874;151.240;2022-09-13T01:26:20;18.90;99.90
20795;DHT22;28087;-33.874;151.240;2022-09-13T01:34:49;19.30;99.90
20795;DHT22;28087;-33.874;151.240;2022-09-13T01:37:43;18.90;99.90
20795;DHT22;28087;-33.874;151.240;2022-09-13T01:40:49;18.70;99.90
20795;DHT22;28087;-33.874;151.240;2022-09-13T01:43:41;18.60;99.90
20795;DHT22;28087;-33.874;151.240;2022-09-13T01:49:13;18.50;99.90
20795;DHT22;28087;-33.874;151.240;2022-09-13T01:54:38;18.50;99.90
20795;DHT22;28087;-33.874;151.240;2022-09-13T02:02:31;18.50;99.90
20795;DHT22;28087;-33.874;151.240;2022-09-13T02:34:02;18.60;99.90
20795;DHT22;28087;-33.874;151.240;2022-09-13T02:36:42;18.70;99.90
20795;DHT22;28087;-33.874;151.240;2022-09-13T02:39:22;18.70;99.90
20795;DHT22;28087;-33.874;151.240;2022-09-13T02:44:42;18.80;99.90
20795;DHT22;28087;-33.874;151.240;2022-09-13T02:47:33;18.90;99.90
20795;DHT22;28087;-33.874;151.240;2022-09-13T02:50:30;18.90;99.90
20795;DHT22;28087;-33.874;151.240;2022-09-13T02:53:14;18.60;99.90
20795;DHT22;28087;-33.874;151.240;2022-09-13T02:55:56;18.60;99.90
20795;DHT22;28087;-33.874;151.240;2022-09-13T02:58:41;18.60;99.90
20795;DHT22;28087;-33.874;151.240;2022-09-13T03:01:18;18.70;99.90
20795;DHT22;28087;-33.874;151.240;2022-09-13T03:03:54;18.50;99.90
20795;DHT22;28087;-33.874;151.240;2022-09-13T03:06:30;18.40;99.90
20795;DHT22;28087;-33.874;151.240;2022-09-13T03:09:07;18.40;99.90
20795;DHT22;28087;-33.874;151.240;2022-09-13T03:11:55;18.30;99.90
20795;DHT22;28087;-33.874;151.240;2022-09-13T03:14:40;18.10;99.90
20795;DHT22;28087;-33.874;151.240;2022-09-13T03:17:40;18.10;99.90
20795;DHT22;28087;-33.874;151.240;2022-09-13T03:20:26;18.10;99.90
20795;DHT22;28087;-33.874;151.240;2022-09-13T03:23:33;18.10;99.90
20795;DHT22;28087;-33.874;151.240;2022-09-13T03:29:10;18.50;99.90
20795;DHT22;28087;-33.874;151.240;2022-09-13T03:37:15;18.50;99.90
20795;DHT22;28087;-33.874;151.240;2022-09-13T03:39:58;18.30;99.90
20795;DHT22;28087;-33.874;151.240;2022-09-13T03:45:17;18.30;99.90
20795;DHT22;28087;-33.874;151.240;2022-09-13T03:47:56;18.30;99.90
20795;DHT22;28087;-33.874;151.240;2022-09-13T03:50:32;18.10;99.90
20795;DHT22;28087;-33.874;151.240;2022-09-13T03:53:12;18.00;99.90
20795;DHT22;28087;-33.874;151.240;2022-09-13T03:55:49;17.90;99.90
20795;DHT22;28087;-33.874;151.240;2022-09-13T03:58:29;17.90;99.90
20795;DHT22;28087;-33.874;151.240;2022-09-13T04:01:05;18.00;99.90
20795;DHT22;28087;-33.874;151.240;2022-09-13T04:03:41;18.10;99.90
20795;DHT22;28087;-33.874;151.240;2022-09-13T04:06:17;18.10;99.90
20795;DHT22;28087;-33.874;151.240;2022-09-13T04:11:31;18.00;99.90
20795;DHT22;28087;-33.874;151.240;2022-09-13T04:14:08;17.90;99.90
20795;DHT22;28087;-33.874;151.240;2022-09-13T04:16:43;17.80;99.90
20795;DHT22;28087;-33.874;151.240;2022-09-13T04:21:56;17.80;99.90
20795;DHT22;28087;-33.874;151.240;2022-09-13T04:24:34;17.80;99.90
20795;DHT22;28087;-33.874;151.240;2022-09-13T04:42:48;18.10;99.90
20795;DHT22;28087;-33.874;151.240;2022-09-13T04:45:26;18.10;99.90
20795;DHT22;28087;-33.874;151.240;2022-09-13T04:48:03;17.90;99.90
20795;DHT22;28087;-33.874;151.240;2022-09-13T04:50:39;17.90;99.90
20795;DHT22;28087;-33.874;151.240;2022-09-13T04:55:51;17.70;99.90
20795;DHT22;28087;-33.874;151.240;2022-09-13T04:58:26;17.70;99.90
20795;DHT22;28087;-33.874;151.240;2022-09-13T05:01:06;17.80;99.90
20795;DHT22;28087;-33.874;151.240;2022-09-13T05:03:42;17.70;99.90
20795;DHT22;28087;-33.874;151.240;2022-09-13T05:06:18;17.60;99.90
20795;DHT22;28087;-33.874;151.240;2022-09-13T05:08:57;17.60;99.90
20795;DHT22;28087;-33.874;151.240;2022-09-13T05:11:32;17.40;99.90
20795;DHT22;28087;-33.874;151.240;2022-09-13T05:16:49;17.50;99.90
20795;DHT22;28087;-33.874;151.240;2022-09-13T05:19:25;17.40;99.90
20795;DHT22;28087;-33.874;151.240;2022-09-13T05:37:31;17.80;99.90
20795;DHT22;28087;-33.874;151.240;2022-09-13T05:40:09;17.60;99.90
20795;DHT22;28087;-33.874;151.240;2022-09-13T05:51:03;17.60;99.90
20795;DHT22;28087;-33.874;151.240;2022-09-13T05:53:39;17.70;99.90
20795;DHT22;28087;-33.874;151.240;2022-09-13T05:56:16;17.70;99.90
20795;DHT22;28087;-33.874;151.240;2022-09-13T05:58:53;17.70;99.90
20795;DHT22;28087;-33.874;151.240;2022-09-13T06:01:28;17.60;99.90
20795;DHT22;28087;-33.874;151.240;2022-09-13T06:04:06;17.60;99.90
20795;DHT22;28087;-33.874;151.240;2022-09-13T06:06:41;17.60;99.90
20795;DHT22;28087;-33.874;151.240;2022-09-13T06:09:17;17.50;99.90
20795;DHT22;28087;-33.874;151.240;2022-09-13T06:30:04;17.40;99.90
20795;DHT22;28087;-33.874;151.240;2022-09-13T06:32:41;17.40;99.90
20795;DHT22;28087;-33.874;151.240;2022-09-13T06:35:19;17.30;99.90
20795;DHT22;28087;-33.874;151.240;2022-09-13T06:37:56;17.30;99.90
20795;DHT22;28087;-33.874;151.240;2022-09-13T06:40:32;17.20;99.90
20795;DHT22;28087;-33.874;151.240;2022-09-13T06:43:09;17.00;99.90
20795;DHT22;28087;-33.874;151.240;2022-09-13T06:53:37;17.10;99.90
20795;DHT22;28087;-33.874;151.240;2022-09-13T07:09:17;17.20;99.90
20795;DHT22;28087;-33.874;151.240;2022-09-13T07:11:54;17.10;99.90
20795;DHT22;28087;-33.874;151.240;2022-09-13T07:14:30;17.10;99.90
20795;DHT22;28087;-33.874;151.240;2022-09-13T07:17:05;17.10;99.90
20795;DHT22;28087;-33.874;151.240;2022-09-13T07:30:09;17.00;99.90
20795;DHT22;28087;-33.874;151.240;2022-09-13T07:32:44;16.90;99.90
20795;DHT22;28087;-33.874;151.240;2022-09-13T07:35:20;16.90;99.90
20795;DHT22;28087;-33.874;151.240;2022-09-13T07:37:58;16.80;99.90
20795;DHT22;28087;-33.874;151.240;2022-09-13T07:40:33;16.80;99.90
20795;DHT22;28087;-33.874;151.240;2022-09-13T07:43:11;16.90;99.90
20795;DHT22;28087;-33.874;151.240;2022-09-13T07:46:07;16.90;99.90
20795;DHT22;28087;-33.874;151.240;2022-09-13T08:22:46;16.70;99.90
20795;DHT22;28087;-33.874;151.240;2022-09-13T08:25:23;17.00;99.90
20795;DHT22;28087;-33.874;151.240;2022-09-13T08:28:00;16.80;99.90
20795;DHT22;28087;-33.874;151.240;2022-09-13T08:30:36;16.80;99.90
20795;DHT22;28087;-33.874;151.240;2022-09-13T08:33:12;16.80;99.90
20795;DHT22;28087;-33.874;151.240;2022-09-13T08:35:51;16.70;99.90
20795;DHT22;28087;-33.874;151.240;2022-09-13T08:38:28;16.60;99.90
20795;DHT22;28087;-33.874;151.240;2022-09-13T08:41:25;16.60;99.90
20795;DHT22;28087;-33.874;151.240;2022-09-13T08:44:27;16.60;99.90
20795;DHT22;28087;-33.874;151.240;2022-09-13T08:47:51;16.60;99.90
20795;DHT22;28087;-33.874;151.240;2022-09-13T08:50:41;16.60;99.90
20795;DHT22;28087;-33.874;151.240;2022-09-13T08:53:21;16.60;99.90
20795;DHT22;28087;-33.874;151.240;2022-09-13T08:56:06;16.70;99.90
20795;DHT22;28087;-33.874;151.240;2022-09-13T08:59:13;16.60;99.90
20795;DHT22;28087;-33.874;151.240;2022-09-13T09:01:57;16.50;99.90
20795;DHT22;28087;-33.874;151.240;2022-09-13T09:04:43;16.60;99.90
20795;DHT22;28087;-33.874;151.240;2022-09-13T09:07:22;16.60;99.90
20795;DHT22;28087;-33.874;151.240;2022-09-13T09:10:00;16.60;99.90
20795;DHT22;28087;-33.874;151.240;2022-09-13T09:12:43;16.60;99.90
20795;DHT22;28087;-33.874;151.240;2022-09-13T09:15:21;16.70;99.90
20795;DHT22;28087;-33.874;151.240;2022-09-13T09:18:02;16.50;99.90
20795;DHT22;28087;-33.874;151.240;2022-09-13T09:20:40;16.60;99.90
20795;DHT22;28087;-33.874;151.240;2022-09-13T09:23:19;16.60;99.90
20795;DHT22;28087;-33.874;151.240;2022-09-13T09:41:57;16.50;99.90
20795;DHT22;28087;-33.874;151.240;2022-09-13T09:44:40;16.50;99.90
20795;DHT22;28087;-33.874;151.240;2022-09-13T09:47:19;16.50;99.90
20795;DHT22;28087;-33.874;151.240;2022-09-13T09:50:03;16.40;99.90
20795;DHT22;28087;-33.874;151.240;2022-09-13T09:52:50;16.30;99.90
20795;DHT22;28087;-33.874;151.240;2022-09-13T09:55:29;16.30;99.90
20795;DHT22;28087;-33.874;151.240;2022-09-13T09:58:08;16.40;99.90
20795;DHT22;28087;-33.874;151.240;2022-09-13T10:00:53;16.30;99.90
20795;DHT22;28087;-33.874;151.240;2022-09-13T10:03:32;16.30;99.90
20795;DHT22;28087;-33.874;151.240;2022-09-13T10:06:10;16.40;99.90
20795;DHT22;28087;-33.874;151.240;2022-09-13T10:08:55;16.30;99.90
20795;DHT22;28087;-33.874;151.240;2022-09-13T10:11:49;16.30;99.90
20795;DHT22;28087;-33.874;151.240;2022-09-13T10:14:37;16.30;99.90
20795;DHT22;28087;-33.874;151.240;2022-09-13T10:17:25;16.20;99.90
20795;DHT22;28087;-33.874;151.240;2022-09-13T10:20:18;16.20;99.90
20795;DHT22;28087;-33.874;151.240;2022-09-13T10:23:18;16.20;99.90
20795;DHT22;28087;-33.874;151.240;2022-09-13T10:26:09;16.40;99.90
20795;DHT22;28087;-33.874;151.240;2022-09-13T10:28:50;16.30;99.90
20795;DHT22;28087;-33.874;151.240;2022-09-13T10:34:15;16.30;99.90
20795;DHT22;28087;-33.874;151.240;2022-09-13T10:50:24;16.40;99.90
20795;DHT22;28087;-33.874;151.240;2022-09-13T10:53:00;16.40;99.90
20795;DHT22;28087;-33.874;151.240;2022-09-13T10:55:37;16.30;99.90
20795;DHT22;28087;-33.874;151.240;2022-09-13T10:58:20;16.30;99.90
20795;DHT22;28087;-33.874;151.240;2022-09-13T11:20:56;16.40;99.90
20795;DHT22;28087;-33.874;151.240;2022-09-13T11:37:42;16.30;99.90
20795;DHT22;28087;-33.874;151.240;2022-09-13T11:40:39;16.20;99.90
20795;DHT22;28087;-33.874;151.240;2022-09-13T11:46:28;15.60;99.90
20795;DHT22;28087;-33.874;151.240;2022-09-13T11:49:49;16.10;99.90
20795;DHT22;28087;-33.874;151.240;2022-09-13T11:52:36;16.10;99.90
20795;DHT22;28087;-33.874;151.240;2022-09-13T11:55:26;16.10;99.90
20795;DHT22;28087;-33.874;151.240;2022-09-13T11:58:04;16.10;99.90
20795;DHT22;28087;-33.874;151.240;2022-09-13T12:00:44;16.10;99.90
20795;DHT22;28087;-33.874;151.240;2022-09-13T12:03:24;16.10;99.90
20795;DHT22;28087;-33.874;151.240;2022-09-13T12:06:06;16.10;99.90
20795;DHT22;28087;-33.874;151.240;2022-09-13T12:08:50;16.10;99.90
20795;DHT22;28087;-33.874;151.240;2022-09-13T12:11:32;16.00;99.90
20795;DHT22;28087;-33.874;151.240;2022-09-13T12:14:14;16.10;99.90
20795;DHT22;28087;-33.874;151.240;2022-09-13T12:17:02;16.10;99.90
20795;DHT22;28087;-33.874;151.240;2022-09-13T12:19:43;16.00;99.90
20795;DHT22;28087;-33.874;151.240;2022-09-13T12:22:20;16.00;99.90
20795;DHT22;28087;-33.874;151.240;2022-09-13T12:25:08;16.00;99.90
20795;DHT22;28087;-33.874;151.240;2022-09-13T12:27:52;16.00;99.90
20795;DHT22;28087;-33.874;151.240;2022-09-13T12:30:40;16.00;99.90
20795;DHT22;28087;-33.874;151.240;2022-09-13T12:33:31;15.90;99.90
20795;DHT22;28087;-33.874;151.240;2022-09-13T12:39:35;15.90;99.90
20795;DHT22;28087;-33.874;151.240;2022-09-13T12:42:42;15.90;99.90
20795;DHT22;28087;-33.874;151.240;2022-09-13T12:45:40;15.80;99.90
20795;DHT22;28087;-33.874;151.240;2022-09-13T12:48:44;15.80;99.90
20795;DHT22;28087;-33.874;151.240;2022-09-13T12:51:35;15.70;99.90
20795;DHT22;28087;-33.874;151.240;2022-09-13T12:54:32;15.70;99.90
20795;DHT22;28087;-33.874;151.240;2022-09-13T12:57:25;15.60;99.90
20795;DHT22;28087;-33.874;151.240;2022-09-13T13:00:20;15.60;99.90
20795;DHT22;28087;-33.874;151.240;2022-09-13T13:03:03;15.60;99.90
20795;DHT22;28087;-33.874;151.240;2022-09-13T13:05:46;15.60;99.90
20795;DHT22;28087;-33.874;151.240;2022-09-13T13:08:28;15.60;99.90
20795;DHT22;28087;-33.874;151.240;2022-09-13T13:11:07;15.60;99.90
20795;DHT22;28087;-33.874;151.240;2022-09-13T13:13:54;15.60;99.90
20795;DHT22;28087;-33.874;151.240;2022-09-13T13:16:30;15.60;99.90
20795;DHT22;28087;-33.874;151.240;2022-09-13T13:19:27;15.60;99.90
20795;DHT22;28087;-33.874;151.240;2022-09-13T13:25:31;15.50;99.90
20795;DHT22;28087;-33.874;151.240;2022-09-13T13:31:37;15.50;99.90
20795;DHT22;28087;-33.874;151.240;2022-09-13T13:34:34;15.40;99.90
20795;DHT22;28087;-33.874;151.240;2022-09-13T13:37:36;15.40;99.90
20795;DHT22;28087;-33.874;151.240;2022-09-13T13:43:32;15.40;99.90
20795;DHT22;28087;-33.874;151.240;2022-09-13T13:46:29;15.30;99.90
20795;DHT22;28087;-33.874;151.240;2022-09-13T13:52:35;15.30;99.90
20795;DHT22;28087;-33.874;151.240;2022-09-13T13:55:30;15.20;99.90
20795;DHT22;28087;-33.874;151.240;2022-09-13T14:01:03;15.20;99.90
20795;DHT22;28087;-33.874;151.240;2022-09-13T14:03:51;15.10;99.90
20795;DHT22;28087;-33.874;151.240;2022-09-13T14:06:32;15.10;99.90
20795;DHT22;28087;-33.874;151.240;2022-09-13T14:09:22;15.10;99.90
20795;DHT22;28087;-33.874;151.240;2022-09-13T14:12:27;15.10;99.90
20795;DHT22;28087;-33.874;151.240;2022-09-13T14:15:30;15.00;99.90
20795;DHT22;28087;-33.874;151.240;2022-09-13T14:18:24;14.90;99.90
20795;DHT22;28087;-33.874;151.240;2022-09-13T14:21:02;14.90;99.90
20795;DHT22;28087;-33.874;151.240;2022-09-13T14:23:38;14.90;99.90
20795;DHT22;28087;-33.874;151.240;2022-09-13T14:26:13;14.80;99.90
20795;DHT22;28087;-33.874;151.240;2022-09-13T14:28:50;14.80;99.90
20795;DHT22;28087;-33.874;151.240;2022-09-13T14:31:26;14.80;99.90
20795;DHT22;28087;-33.874;151.240;2022-09-13T14:34:03;14.70;99.90
20795;DHT22;28087;-33.874;151.240;2022-09-13T14:36:40;14.70;99.90
20795;DHT22;28087;-33.874;151.240;2022-09-13T14:39:24;14.60;99.90
20795;DHT22;28087;-33.874;151.240;2022-09-13T14:42:02;14.60;99.90
20795;DHT22;28087;-33.874;151.240;2022-09-13T14:44:46;14.60;99.90
20795;DHT22;28087;-33.874;151.240;2022-09-13T14:47:28;14.60;99.90
20795;DHT22;28087;-33.874;151.240;2022-09-13T14:50:10;14.60;99.90
20795;DHT22;28087;-33.874;151.240;2022-09-13T14:52:50;14.60;99.90
20795;DHT22;28087;-33.874;151.240;2022-09-13T14:55:31;14.50;99.90
20795;DHT22;28087;-33.874;151.240;2022-09-13T14:58:29;14.50;99.90
20795;DHT22;28087;-33.874;151.240;2022-09-13T15:01:10;14.40;99.90
20795;DHT22;28087;-33.874;151.240;2022-09-13T15:03:56;14.40;99.90
20795;DHT22;28087;-33.874;151.240;2022-09-13T15:06:34;14.30;99.90
20795;DHT22;28087;-33.874;151.240;2022-09-13T15:09:22;14.30;99.90
20795;DHT22;28087;-33.874;151.240;2022-09-13T15:12:00;14.30;99.90
20795;DHT22;28087;-33.874;151.240;2022-09-13T15:14:37;14.30;99.90
20795;DHT22;28087;-33.874;151.240;2022-09-13T15:17:14;14.30;99.90
20795;DHT22;28087;-33.874;151.240;2022-09-13T15:20:00;14.30;99.90
20795;DHT22;28087;-33.874;151.240;2022-09-13T15:22:42;14.30;99.90
20795;DHT22;28087;-33.874;151.240;2022-09-13T15:25:21;14.30;99.90
20795;DHT22;28087;-33.874;151.240;2022-09-13T15:27:58;14.30;99.90
20795;DHT22;28087;-33.874;151.240;2022-09-13T15:30:40;14.20;99.90
20795;DHT22;28087;-33.874;151.240;2022-09-13T15:33:23;14.20;99.90
20795;DHT22;28087;-33.874;151.240;2022-09-13T15:36:25;14.20;99.90
20795;DHT22;28087;-33.874;151.240;2022-09-13T15:39:14;14.10;99.90
20795;DHT22;28087;-33.874;151.240;2022-09-13T15:41:53;14.20;99.90
20795;DHT22;28087;-33.874;151.240;2022-09-13T15:44:29;14.20;99.90
20795;DHT22;28087;-33.874;151.240;2022-09-13T15:47:16;14.10;99.90
20795;DHT22;28087;-33.874;151.240;2022-09-13T15:49:53;14.20;99.90
20795;DHT22;28087;-33.874;151.240;2022-09-13T15:52:29;14.20;99.90
20795;DHT22;28087;-33.874;151.240;2022-09-13T15:55:11;14.20;99.90
20795;DHT22;28087;-33.874;151.240;2022-09-13T15:57:47;14.20;99.90
20795;DHT22;28087;-33.874;151.240;2022-09-13T16:00:24;14.30;99.90
20795;DHT22;28087;-33.874;151.240;2022-09-13T16:03:00;14.20;99.90
20795;DHT22;28087;-33.874;151.240;2022-09-13T16:05:35;14.20;99.90
20795;DHT22;28087;-33.874;151.240;2022-09-13T16:30:54;13.90;99.90
20795;DHT22;28087;-33.874;151.240;2022-09-13T16:33:30;13.90;99.90
20795;DHT22;28087;-33.874;151.240;2022-09-13T16:36:09;13.90;99.90
20795;DHT22;28087;-33.874;151.240;2022-09-13T16:38:46;13.80;99.90
20795;DHT22;28087;-33.874;151.240;2022-09-13T16:41:21;13.80;99.90
20795;DHT22;28087;-33.874;151.240;2022-09-13T16:43:56;13.80;99.90
20795;DHT22;28087;-33.874;151.240;2022-09-13T16:46:38;13.80;99.90
20795;DHT22;28087;-33.874;151.240;2022-09-13T16:49:14;13.80;99.90
20795;DHT22;28087;-33.874;151.240;2022-09-13T16:51:49;13.70;99.90
20795;DHT22;28087;-33.874;151.240;2022-09-13T16:54:43;13.70;99.90
20795;DHT22;28087;-33.874;151.240;2022-09-13T16:57:39;13.70;99.90
20795;DHT22;28087;-33.874;151.240;2022-09-13T17:00:17;13.70;99.90
20795;DHT22;28087;-33.874;151.240;2022-09-13T17:02:57;13.60;99.90
20795;DHT22;28087;-33.874;151.240;2022-09-13T17:05:34;13.80;99.90
20795;DHT22;28087;-33.874;151.240;2022-09-13T17:08:09;13.60;99.90
20795;DHT22;28087;-33.874;151.240;2022-09-13T17:10:45;13.60;99.90
20795;DHT22;28087;-33.874;151.240;2022-09-13T17:13:21;13.60;99.90
20795;DHT22;28087;-33.874;151.240;2022-09-13T17:15:58;13.70;99.90
20795;DHT22;28087;-33.874;151.240;2022-09-13T17:18:35;13.70;99.90
20795;DHT22;28087;-33.874;151.240;2022-09-13T17:21:10;13.70;99.90
20795;DHT22;28087;-33.874;151.240;2022-09-13T17:23:46;13.70;99.90
20795;DHT22;28087;-33.874;151.240;2022-09-13T17:26:21;13.80;99.90
20795;DHT22;28087;-33.874;151.240;2022-09-13T17:28:57;13.90;99.90
20795;DHT22;28087;-33.874;151.240;2022-09-13T17:31:32;13.70;99.90
20795;DHT22;28087;-33.874;151.240;2022-09-13T17:34:10;13.70;99.90
20795;DHT22;28087;-33.874;151.240;2022-09-13T17:36:46;13.70;99.90
20795;DHT22;28087;-33.874;151.240;2022-09-13T17:39:21;13.70;99.90
20795;DHT22;28087;-33.874;151.240;2022-09-13T17:41:57;13.70;99.90
20795;DHT22;28087;-33.874;151.240;2022-09-13T17:44:33;13.70;99.90
20795;DHT22;28087;-33.874;151.240;2022-09-13T17:47:08;13.70;99.90
20795;DHT22;28087;-33.874;151.240;2022-09-13T17:49:45;13.70;99.90
20795;DHT22;28087;-33.874;151.240;2022-09-13T17:52:21;13.70;99.90
20795;DHT22;28087;-33.874;151.240;2022-09-13T17:54:56;13.70;99.90
20795;DHT22;28087;-33.874;151.240;2022-09-13T17:57:32;13.70;99.90
20795;DHT22;28087;-33.874;151.240;2022-09-13T18:00:09;13.70;99.90
20795;DHT22;28087;-33.874;151.240;2022-09-13T18:02:45;13.70;99.90
20795;DHT22;28087;-33.874;151.240;2022-09-13T18:05:24;13.70;99.90
20795;DHT22;28087;-33.874;151.240;2022-09-13T18:08:00;13.60;99.90
20795;DHT22;28087;-33.874;151.240;2022-09-13T18:10:38;13.60;99.90
20795;DHT22;28087;-33.874;151.240;2022-09-13T18:13:34;13.70;99.90
20795;DHT22;28087;-33.874;151.240;2022-09-13T18:16:12;13.70;99.90
20795;DHT22;28087;-33.874;151.240;2022-09-13T18:18:51;13.70;99.90
20795;DHT22;28087;-33.874;151.240;2022-09-13T18:21:29;13.60;99.90
20795;DHT22;28087;-33.874;151.240;2022-09-13T18:24:05;13.70;99.90
20795;DHT22;28087;-33.874;151.240;2022-09-13T18:26:41;13.60;99.90
20795;DHT22;28087;-33.874;151.240;2022-09-13T18:29:16;13.60;99.90
20795;DHT22;28087;-33.874;151.240;2022-09-13T18:31:53;13.50;99.90
20795;DHT22;28087;-33.874;151.240;2022-09-13T18:34:29;13.50;99.90
20795;DHT22;28087;-33.874;151.240;2022-09-13T18:37:06;13.50;99.90
20795;DHT22;28087;-33.874;151.240;2022-09-13T18:39:41;13.50;99.90
20795;DHT22;28087;-33.874;151.240;2022-09-13T18:42:17;13.40;99.90
20795;DHT22;28087;-33.874;151.240;2022-09-13T18:44:53;13.40;99.90
20795;DHT22;28087;-33.874;151.240;2022-09-13T18:47:28;13.30;99.90
20795;DHT22;28087;-33.874;151.240;2022-09-13T18:50:03;13.30;99.90
20795;DHT22;28087;-33.874;151.240;2022-09-13T18:52:43;13.30;99.90
20795;DHT22;28087;-33.874;151.240;2022-09-13T18:55:18;13.40;99.90
20795;DHT22;28087;-33.874;151.240;2022-09-13T18:57:55;13.30;99.90
20795;DHT22;28087;-33.874;151.240;2022-09-13T19:00:30;13.30;99.90
20795;DHT22;28087;-33.874;151.240;2022-09-13T19:03:08;13.20;99.90
20795;DHT22;28087;-33.874;151.240;2022-09-13T19:05:45;13.20;99.90
20795;DHT22;28087;-33.874;151.240;2022-09-13T19:08:22;13.20;99.90
20795;DHT22;28087;-33.874;151.240;2022-09-13T19:10:58;13.10;99.90
20795;DHT22;28087;-33.874;151.240;2022-09-13T19:13:35;13.10;99.90
20795;DHT22;28087;-33.874;151.240;2022-09-13T19:16:12;13.10;99.90
20795;DHT22;28087;-33.874;151.240;2022-09-13T19:18:49;13.10;99.90
20795;DHT22;28087;-33.874;151.240;2022-09-13T19:21:28;13.10;99.90
20795;DHT22;28087;-33.874;151.240;2022-09-13T19:24:06;13.10;99.90
20795;DHT22;28087;-33.874;151.240;2022-09-13T19:26:47;13.00;99.90
20795;DHT22;28087;-33.874;151.240;2022-09-13T19:29:24;13.00;99.90
20795;DHT22;28087;-33.874;151.240;2022-09-13T19:31:59;13.00;99.90
20795;DHT22;28087;-33.874;151.240;2022-09-13T19:34:34;13.00;99.90
20795;DHT22;28087;-33.874;151.240;2022-09-13T19:37:10;13.00;99.90
20795;DHT22;28087;-33.874;151.240;2022-09-13T19:39:48;13.00;99.90
20795;DHT22;28087;-33.874;151.240;2022-09-13T19:42:23;13.00;99.90
20795;DHT22;28087;-33.874;151.240;2022-09-13T19:44:58;13.10;99.90
20795;DHT22;28087;-33.874;151.240;2022-09-13T19:47:34;13.00;99.90
20795;DHT22;28087;-33.874;151.240;2022-09-13T19:50:29;13.00;99.90
20795;DHT22;28087;-33.874;151.240;2022-09-13T19:53:06;13.00;99.90
20795;DHT22;28087;-33.874;151.240;2022-09-13T19:55:45;13.00;99.90
20795;DHT22;28087;-33.874;151.240;2022-09-13T19:58:21;13.00;99.90
20795;DHT22;28087;-33.874;151.240;2022-09-13T20:01:02;13.00;99.90
20795;DHT22;28087;-33.874;151.240;2022-09-13T20:03:38;12.90;99.90
20795;DHT22;28087;-33.874;151.240;2022-09-13T20:06:13;12.90;99.90
20795;DHT22;28087;-33.874;151.240;2022-09-13T20:08:49;12.90;99.90
20795;DHT22;28087;-33.874;151.240;2022-09-13T20:11:26;13.00;99.90
20795;DHT22;28087;-33.874;151.240;2022-09-13T20:14:03;13.00;99.90
20795;DHT22;28087;-33.874;151.240;2022-09-13T20:16:39;13.00;99.90
20795;DHT22;28087;-33.874;151.240;2022-09-13T20:19:15;13.10;99.90
20795;DHT22;28087;-33.874;151.240;2022-09-13T20:22:11;13.00;99.90
20795;DHT22;28087;-33.874;151.240;2022-09-13T20:24:47;13.00;99.90
20795;DHT22;28087;-33.874;151.240;2022-09-13T20:27:25;13.10;99.90
20795;DHT22;28087;-33.874;151.240;2022-09-13T20:30:00;13.10;99.90
20795;DHT22;28087;-33.874;151.240;2022-09-13T20:32:36;13.20;99.90
20795;DHT22;28087;-33.874;151.240;2022-09-13T20:35:11;13.40;99.90
20795;DHT22;28087;-33.874;151.240;2022-09-13T20:37:47;13.50;99.90
20795;DHT22;28087;-33.874;151.240;2022-09-13T20:40:22;13.60;99.90
20795;DHT22;28087;-33.874;151.240;2022-09-13T20:43:00;13.70;99.90
20795;DHT22;28087;-33.874;151.240;2022-09-13T20:45:36;13.80;99.90
20795;DHT22;28087;-33.874;151.240;2022-09-13T20:48:12;13.80;99.90
20795;DHT22;28087;-33.874;151.240;2022-09-13T20:50:56;13.90;99.90
20795;DHT22;28087;-33.874;151.240;2022-09-13T20:53:32;14.00;99.90
20795;DHT22;28087;-33.874;151.240;2022-09-13T20:56:09;14.10;99.90
20795;DHT22;28087;-33.874;151.240;2022-09-13T20:59:10;14.20;99.90
20795;DHT22;28087;-33.874;151.240;2022-09-13T21:01:45;14.30;99.90
20795;DHT22;28087;-33.874;151.240;2022-09-13T21:04:22;14.40;99.90
20795;DHT22;28087;-33.874;151.240;2022-09-13T21:06:57;14.50;99.90
20795;DHT22;28087;-33.874;151.240;2022-09-13T21:09:51;14.60;99.90
20795;DHT22;28087;-33.874;151.240;2022-09-13T21:12:27;14.80;99.90
20795;DHT22;28087;-33.874;151.240;2022-09-13T21:15:05;14.80;99.90
20795;DHT22;28087;-33.874;151.240;2022-09-13T21:17:41;15.00;99.90
20795;DHT22;28087;-33.874;151.240;2022-09-13T21:20:16;15.10;99.90
20795;DHT22;28087;-33.874;151.240;2022-09-13T21:22:52;15.30;99.90
20795;DHT22;28087;-33.874;151.240;2022-09-13T21:25:27;15.40;99.90
20795;DHT22;28087;-33.874;151.240;2022-09-13T21:28:03;15.70;99.90
20795;DHT22;28087;-33.874;151.240;2022-09-13T21:30:40;15.70;99.90
20795;DHT22;28087;-33.874;151.240;2022-09-13T21:33:15;15.80;99.90
20795;DHT22;28087;-33.874;151.240;2022-09-13T21:35:53;15.80;99.90
20795;DHT22;28087;-33.874;151.240;2022-09-13T21:38:31;15.80;99.90
20795;DHT22;28087;-33.874;151.240;2022-09-13T21:41:10;16.00;99.90
20795;DHT22;28087;-33.874;151.240;2022-09-13T21:43:46;16.10;99.90